Time;durP1;ratioP1;P1;durP2;ratioP2;P2;SDS_P1;SDS_P2;PMS_P1;PMS_P2;Temp;Humidity;BMP_temperature;BMP_pressure;BME280_temperature;BME280_humidity;BME280_pressure;Samples;Min_cycle;Max_cycle;Signal;HPM_P1;HPM_P2
2022/04/07 00:01:41;;;;;;;4.78;2.72;;;10.90;99.90;;;;;;5052303;28;20138;-85
2022/04/07 00:04:07;;;;;;;7.10;2.92;;;10.90;99.90;;;;;;5052305;28;20482;-85
2022/04/07 00:06:32;;;;;;;6.55;3.15;;;10.90;99.90;;;;;;5001812;28;20090;-85
2022/04/07 00:09:06;;;;;;;4.63;2.80;;;10.80;99.90;;;;;;5034711;28;20565;-85
2022/04/07 00:11:31;;;;;;;4.72;2.60;;;10.80;99.90;;;;;;5034651;28;20025;-85
2022/04/07 00:13:57;;;;;;;4.43;3.10;;;10.80;99.90;;;;;;5054400;28;20044;-86
2022/04/07 00:16:23;;;;;;;5.35;3.85;;;10.80;99.90;;;;;;5038994;28;20025;-85
2022/04/07 00:18:49;;;;;;;5.53;2.90;;;10.80;99.90;;;;;;5005913;28;20450;-85
2022/04/07 00:21:24;;;;;;;6.35;2.85;;;10.80;99.90;;;;;;5039106;28;20461;-85
2022/04/07 00:23:51;;;;;;;6.53;3.10;;;10.80;99.90;;;;;;5039950;28;20029;-84
2022/04/07 00:26:17;;;;;;;6.75;3.13;;;10.80;99.90;;;;;;5038709;28;20032;-85
2022/04/07 00:28:43;;;;;;;5.18;2.92;;;10.80;99.90;;;;;;5022156;28;20026;-85
2022/04/07 00:31:11;;;;;;;5.45;2.85;;;10.80;99.90;;;;;;5021945;28;20469;-85
2022/04/07 00:33:37;;;;;;;6.63;3.22;;;10.70;99.90;;;;;;5006450;28;20036;-85
2022/04/07 00:36:04;;;;;;;5.63;2.88;;;10.70;99.90;;;;;;5038384;28;20490;-85
2022/04/07 00:38:30;;;;;;;5.03;2.90;;;10.70;99.90;;;;;;5038435;28;20075;-85
2022/04/07 00:40:56;;;;;;;4.43;2.80;;;10.70;99.90;;;;;;5038196;28;20103;-86
2022/04/07 00:43:29;;;;;;;5.95;2.80;;;10.60;99.90;;;;;;5055019;28;20473;-85
2022/04/07 00:45:55;;;;;;;5.07;3.03;;;10.60;99.90;;;;;;5038025;28;20067;-85
2022/04/07 00:48:21;;;;;;;7.55;2.72;;;10.60;99.90;;;;;;5038080;28;20062;-85
2022/04/07 00:50:47;;;;;;;6.30;2.95;;;10.60;99.90;;;;;;5021520;28;20029;-85
2022/04/07 00:53:12;;;;;;;8.30;2.80;;;10.60;99.90;;;;;;5021828;28;20036;-85
2022/04/07 00:55:39;;;;;;;7.88;2.45;;;10.60;99.90;;;;;;5037579;28;20029;-85
2022/04/07 00:58:05;;;;;;;6.55;2.40;;;10.60;99.90;;;;;;5038196;28;20025;-86
2022/04/07 01:00:31;;;;;;;7.93;2.20;;;10.60;99.90;;;;;;5038525;28;20476;-85
2022/04/07 01:02:57;;;;;;;9.73;2.53;;;10.50;99.90;;;;;;5020704;28;20037;-85
2022/04/07 01:05:23;;;;;;;4.55;2.03;;;10.50;99.90;;;;;;5020880;28;20056;-85
2022/04/07 01:07:49;;;;;;;7.85;2.05;;;10.60;99.90;;;;;;5054400;28;20524;-86
2022/04/07 01:10:18;;;;;;;9.40;1.95;;;10.60;99.90;;;;;;5037747;28;20124;-85
2022/04/07 01:12:44;;;;;;;3.47;1.35;;;10.60;99.90;;;;;;5021657;28;20082;-84
2022/04/07 01:15:10;;;;;;;7.07;2.08;;;10.60;99.90;;;;;;5018505;28;20033;-84
2022/04/07 01:17:36;;;;;;;7.90;2.13;;;10.60;99.90;;;;;;5015709;28;20030;-84
2022/04/07 01:20:07;;;;;;;5.65;1.52;;;10.50;99.90;;;;;;5037426;28;20091;-84
2022/04/07 01:22:36;;;;;;;11.00;2.58;;;10.50;99.90;;;;;;5037388;28;20494;-85
2022/04/07 01:25:02;;;;;;;10.23;2.10;;;10.50;99.90;;;;;;5054869;28;20025;-86
2022/04/07 01:27:28;;;;;;;7.50;1.73;;;10.50;99.90;;;;;;5037631;28;20025;-85
2022/04/07 01:29:56;;;;;;;9.30;2.00;;;10.40;99.90;;;;;;5020935;28;20103;-85
2022/04/07 01:32:41;;;;;;;8.63;2.00;;;10.40;99.90;;;;;;5021255;28;20025;-85
2022/04/07 01:35:08;;;;;;;8.15;2.30;;;10.30;99.90;;;;;;5055250;28;20049;-85
2022/04/07 01:37:35;;;;;;;6.57;1.73;;;10.30;99.90;;;;;;5020943;28;20076;-85
2022/04/07 01:40:04;;;;;;;11.88;2.03;;;10.30;99.90;;;;;;5037132;28;20136;-86
2022/04/07 01:42:32;;;;;;;12.13;2.17;;;10.20;99.90;;;;;;5036923;28;20028;-86
2022/04/07 01:45:01;;;;;;;10.07;2.30;;;10.20;99.90;;;;;;5036582;28;20041;-84
2022/04/07 01:47:27;;;;;;;8.57;2.83;;;10.20;99.90;;;;;;5037310;28;20090;-84
2022/04/07 01:50:04;;;;;;;7.70;2.13;;;10.20;99.90;;;;;;5037408;28;20462;-84
2022/04/07 01:52:29;;;;;;;7.60;2.17;;;10.10;99.90;;;;;;5037463;28;20075;-85
2022/04/07 01:54:58;;;;;;;6.85;2.10;;;10.10;99.90;;;;;;5037486;28;20454;-85
2022/04/07 01:57:24;;;;;;;5.97;2.20;;;10.10;99.90;;;;;;5037557;28;20040;-84
2022/04/07 01:59:51;;;;;;;7.25;1.90;;;10.10;99.90;;;;;;5037243;28;20021;-83
2022/04/07 02:02:17;;;;;;;7.43;2.40;;;10.10;99.90;;;;;;5054791;28;20040;-85
2022/04/07 02:04:57;;;;;;;9.38;2.95;;;10.10;99.90;;;;;;5020630;28;20022;-85
2022/04/07 02:07:27;;;;;;;10.70;2.40;;;10.10;99.90;;;;;;5055083;28;20025;-85
2022/04/07 02:09:53;;;;;;;7.88;2.17;;;10.10;99.90;;;;;;5037149;28;20017;-85
2022/04/07 02:12:20;;;;;;;7.68;2.30;;;10.10;99.90;;;;;;5036051;28;20554;-85
2022/04/07 02:14:50;;;;;;;9.93;2.28;;;10.10;99.90;;;;;;5037014;28;20052;-85
2022/04/07 02:17:20;;;;;;;11.38;2.33;;;10.10;99.90;;;;;;5037222;28;20066;-85
2022/04/07 02:19:49;;;;;;;8.57;2.40;;;10.00;99.90;;;;;;5021627;28;20032;-87
2022/04/07 02:22:14;;;;;;;7.90;2.63;;;10.10;99.90;;;;;;5038053;28;20364;-85
2022/04/07 02:24:41;;;;;;;6.03;2.42;;;10.00;99.90;;;;;;5020013;28;20072;-85
2022/04/07 02:27:08;;;;;;;8.52;2.58;;;10.00;99.90;;;;;;5036600;28;20037;-85
2022/04/07 02:29:34;;;;;;;9.05;2.38;;;10.00;99.90;;;;;;5036613;28;20021;-84
2022/04/07 02:32:00;;;;;;;11.45;2.67;;;10.00;99.90;;;;;;5020149;28;20025;-85
2022/04/07 02:34:25;;;;;;;10.10;3.05;;;10.00;99.90;;;;;;5054010;28;20432;-85
2022/04/07 02:36:51;;;;;;;9.65;2.70;;;10.00;99.90;;;;;;5020036;28;20078;-86
2022/04/07 02:39:17;;;;;;;9.60;2.45;;;10.00;99.90;;;;;;5020165;28;20044;-85
2022/04/07 02:41:42;;;;;;;8.88;2.80;;;10.00;99.90;;;;;;5036028;28;20532;-84
2022/04/07 02:44:08;;;;;;;7.95;2.35;;;10.00;99.90;;;;;;5053853;28;20040;-84
2022/04/07 02:46:34;;;;;;;8.90;2.90;;;10.00;99.90;;;;;;5036899;28;20136;-83
2022/04/07 02:48:59;;;;;;;7.55;2.55;;;10.00;99.90;;;;;;5019806;28;20029;-85
2022/04/07 02:51:26;;;;;;;7.82;2.30;;;10.00;99.90;;;;;;5019927;28;20435;-84
2022/04/07 02:53:57;;;;;;;8.80;2.47;;;10.00;99.90;;;;;;5036826;28;20488;-85
2022/04/07 02:56:24;;;;;;;10.10;2.50;;;10.00;99.90;;;;;;5020463;28;20028;-84
2022/04/07 02:58:49;;;;;;;10.73;2.60;;;10.00;99.90;;;;;;5019683;28;20028;-87
2022/04/07 03:01:15;;;;;;;11.35;3.25;;;10.00;99.90;;;;;;5035105;28;20501;-85
2022/04/07 03:03:41;;;;;;;13.30;3.55;;;10.00;99.90;;;;;;5019537;28;20116;-85
2022/04/07 03:06:07;;;;;;;14.38;3.45;;;10.00;99.90;;;;;;5019503;28;20044;-83
2022/04/07 03:08:35;;;;;;;12.82;3.42;;;10.00;99.90;;;;;;5019813;28;20179;-85
2022/04/07 03:11:01;;;;;;;14.30;2.97;;;10.10;99.90;;;;;;5019273;28;20036;-86
2022/04/07 03:13:27;;;;;;;15.38;3.53;;;10.10;99.90;;;;;;5019569;28;20037;-85
2022/04/07 03:15:53;;;;;;;19.33;3.75;;;10.10;99.90;;;;;;5035731;28;20115;-86
2022/04/07 03:18:19;;;;;;;10.05;2.55;;;10.10;99.90;;;;;;5036292;28;20033;-85
2022/04/07 03:20:45;;;;;;;13.85;3.35;;;10.10;99.90;;;;;;5019304;28;20021;-86
2022/04/07 03:23:12;;;;;;;10.23;2.65;;;10.10;99.90;;;;;;5019052;28;20037;-84
2022/04/07 03:25:38;;;;;;;14.75;3.20;;;10.10;99.90;;;;;;5035576;28;20060;-85
2022/04/07 03:28:04;;;;;;;11.65;2.60;;;10.10;99.90;;;;;;5018884;28;20061;-86
2022/04/07 03:30:30;;;;;;;13.00;3.15;;;10.10;99.90;;;;;;5019189;28;20055;-84
2022/04/07 03:32:56;;;;;;;12.43;2.53;;;10.10;99.90;;;;;;5019030;28;20082;-86
2022/04/07 03:35:21;;;;;;;12.20;2.83;;;10.10;99.90;;;;;;5018940;28;20053;-85
2022/04/07 03:37:47;;;;;;;13.70;3.05;;;10.10;99.90;;;;;;5053256;28;20029;-85
2022/04/07 03:40:13;;;;;;;12.00;2.85;;;10.20;99.90;;;;;;5018930;28;20025;-85
2022/04/07 03:42:39;;;;;;;17.08;3.15;;;10.20;99.90;;;;;;5018697;28;20041;-85
2022/04/07 03:45:05;;;;;;;11.93;2.92;;;10.20;99.90;;;;;;5035396;28;20112;-86
2022/04/07 03:47:31;;;;;;;13.10;2.70;;;10.20;99.90;;;;;;5019018;28;20040;-86
2022/04/07 03:49:57;;;;;;;10.23;2.92;;;10.20;99.90;;;;;;5018883;28;20413;-87
2022/04/07 03:52:23;;;;;;;13.38;3.22;;;10.20;99.90;;;;;;5019123;28;20098;-85
2022/04/07 03:54:49;;;;;;;13.30;2.60;;;10.20;99.90;;;;;;5053242;28;20029;-85
2022/04/07 03:57:15;;;;;;;15.60;3.05;;;10.20;99.90;;;;;;5034941;28;20052;-85
2022/04/07 03:59:42;;;;;;;8.68;2.50;;;10.20;99.90;;;;;;5019142;28;20052;-86
2022/04/07 04:02:10;;;;;;;9.73;2.72;;;10.20;99.90;;;;;;5034905;28;20025;-86
2022/04/07 04:04:36;;;;;;;15.23;2.90;;;10.20;99.90;;;;;;5019065;28;20036;-87
2022/04/07 04:07:02;;;;;;;13.18;2.45;;;10.20;99.90;;;;;;5035470;28;20028;-86
2022/04/07 04:09:28;;;;;;;10.82;2.50;;;10.20;99.90;;;;;;5035282;28;20485;-85
2022/04/07 04:11:54;;;;;;;14.65;2.90;;;10.20;99.90;;;;;;5035031;28;20485;-86
2022/04/07 04:14:20;;;;;;;16.27;3.45;;;10.20;99.90;;;;;;5035038;28;20036;-85
2022/04/07 04:16:46;;;;;;;10.20;2.75;;;10.20;99.90;;;;;;5018675;28;20119;-87
2022/04/07 04:19:11;;;;;;;13.10;2.63;;;10.20;99.90;;;;;;5035102;28;20060;-85
2022/04/07 04:21:37;;;;;;;12.18;3.65;;;10.20;99.90;;;;;;5018743;28;20068;-86
2022/04/07 04:24:04;;;;;;;13.57;3.13;;;10.20;99.90;;;;;;5034780;28;20082;-87
2022/04/07 04:26:29;;;;;;;9.85;2.03;;;10.20;99.90;;;;;;5018717;28;20059;-85
2022/04/07 04:28:55;;;;;;;11.50;3.00;;;10.20;99.90;;;;;;5018641;28;20053;-85
2022/04/07 04:31:24;;;;;;;9.77;2.67;;;10.20;99.90;;;;;;5035410;28;20033;-86
2022/04/07 04:33:53;;;;;;;12.93;2.67;;;10.20;99.90;;;;;;5018899;28;20056;-85
2022/04/07 04:36:19;;;;;;;11.00;1.98;;;10.20;99.90;;;;;;5018300;28;20049;-86
2022/04/07 04:38:46;;;;;;;10.25;2.00;;;10.20;99.90;;;;;;5035195;28;20025;-87
2022/04/07 04:41:11;;;;;;;11.82;2.03;;;10.10;99.90;;;;;;5035043;28;20062;-86
2022/04/07 04:43:37;;;;;;;10.30;2.20;;;10.10;99.90;;;;;;5035340;28;20112;-88
2022/04/07 04:46:03;;;;;;;10.07;1.92;;;10.10;99.90;;;;;;5034972;28;20032;-85
2022/04/07 04:48:28;;;;;;;11.35;2.33;;;10.20;99.90;;;;;;5034909;28;20025;-86
2022/04/07 04:50:57;;;;;;;9.57;2.80;;;10.20;99.90;;;;;;5018517;28;20466;-85
2022/04/07 04:53:24;;;;;;;10.25;2.28;;;10.20;99.90;;;;;;5034578;28;20049;-86
2022/04/07 04:55:50;;;;;;;9.40;1.80;;;10.20;99.90;;;;;;5034130;28;20025;-86
2022/04/07 04:58:16;;;;;;;12.48;2.58;;;10.20;99.90;;;;;;5034821;28;20025;-85
2022/04/07 05:00:42;;;;;;;9.90;1.98;;;10.20;99.90;;;;;;5037565;28;20047;-85
2022/04/07 05:03:08;;;;;;;9.63;2.35;;;10.20;99.90;;;;;;5038174;28;20021;-85
2022/04/07 05:05:37;;;;;;;11.65;2.60;;;10.30;99.90;;;;;;5022092;28;20079;-87
2022/04/07 05:08:03;;;;;;;6.80;1.70;;;10.30;99.90;;;;;;5022523;28;20082;-86
2022/04/07 05:10:28;;;;;;;5.95;1.48;;;10.30;99.90;;;;;;5056130;28;20028;-86
2022/04/07 05:12:54;;;;;;;7.38;1.85;;;10.30;99.90;;;;;;5055795;28;20432;-86
2022/04/07 05:15:23;;;;;;;8.63;2.10;;;10.30;99.90;;;;;;5021481;28;20029;-85
2022/04/07 05:17:50;;;;;;;6.57;2.05;;;10.30;99.90;;;;;;5055645;28;20416;-86
2022/04/07 05:20:16;;;;;;;7.53;1.80;;;10.30;99.90;;;;;;5050298;28;20040;-85
2022/04/07 05:22:42;;;;;;;5.72;2.08;;;10.40;99.90;;;;;;5038010;28;20032;-86
2022/04/07 05:25:08;;;;;;;8.43;2.00;;;10.40;99.90;;;;;;5055866;28;20398;-86
2022/04/07 05:27:36;;;;;;;4.85;1.60;;;10.40;99.90;;;;;;5038209;28;20032;-87
2022/04/07 05:30:04;;;;;;;7.03;1.85;;;10.40;99.90;;;;;;5021947;28;20096;-87
2022/04/07 05:32:30;;;;;;;6.78;1.65;;;10.40;99.90;;;;;;5037389;28;20106;-85
2022/04/07 05:34:56;;;;;;;6.95;2.50;;;10.40;99.90;;;;;;5055389;28;20080;-86
2022/04/07 05:37:22;;;;;;;5.18;1.50;;;10.40;99.90;;;;;;5037747;28;20120;-87
2022/04/07 05:39:47;;;;;;;6.32;1.50;;;10.40;99.90;;;;;;5021227;28;20120;-86
2022/04/07 05:42:13;;;;;;;5.57;1.52;;;10.40;99.90;;;;;;5021041;28;20132;-85
2022/04/07 05:44:39;;;;;;;6.10;1.40;;;10.40;99.90;;;;;;5021486;28;20503;-87
2022/04/07 05:47:05;;;;;;;3.42;1.10;;;10.40;99.90;;;;;;5037895;28;20530;-86
2022/04/07 05:49:30;;;;;;;10.63;2.00;;;10.40;99.90;;;;;;5021138;28;20029;-85
2022/04/07 05:52:02;;;;;;;7.22;1.60;;;10.40;99.90;;;;;;5021088;28;20123;-85
2022/04/07 05:54:28;;;;;;;4.72;1.15;;;10.40;99.90;;;;;;5037477;28;20485;-87
2022/04/07 05:56:53;;;;;;;4.20;1.50;;;10.40;99.90;;;;;;5037281;28;20017;-85
2022/04/07 05:59:19;;;;;;;4.28;1.40;;;10.40;99.90;;;;;;5037235;28;20032;-88
2022/04/07 06:01:45;;;;;;;6.93;1.30;;;10.40;99.90;;;;;;5020752;28;20376;-86
2022/04/07 06:04:11;;;;;;;3.45;1.17;;;10.40;99.90;;;;;;5037145;28;20025;-87
2022/04/07 06:06:37;;;;;;;3.67;1.42;;;10.40;99.90;;;;;;5037190;28;20481;-86
2022/04/07 06:09:03;;;;;;;4.80;1.50;;;10.40;99.90;;;;;;5020923;28;20127;-87
2022/04/07 06:11:29;;;;;;;3.97;1.30;;;10.40;99.90;;;;;;5035734;28;20524;-86
2022/04/07 06:13:55;;;;;;;4.40;1.50;;;10.40;99.90;;;;;;5037295;28;20170;-86
2022/04/07 06:16:23;;;;;;;4.68;1.40;;;10.30;99.90;;;;;;5037097;28;20381;-89
2022/04/07 06:18:49;;;;;;;5.47;1.80;;;10.30;99.90;;;;;;5036940;28;20111;-89
2022/04/07 06:21:15;;;;;;;5.10;1.33;;;10.30;99.90;;;;;;5037201;28;20056;-88
2022/04/07 06:23:41;;;;;;;3.38;1.40;;;10.30;99.90;;;;;;5037235;28;20473;-88
2022/04/07 06:26:07;;;;;;;4.20;1.60;;;10.20;99.90;;;;;;5037309;28;20025;-87
2022/04/07 06:28:35;;;;;;;6.45;2.10;;;10.20;99.90;;;;;;5055078;28;20032;-89
2022/04/07 06:31:01;;;;;;;4.03;1.55;;;10.20;99.90;;;;;;5037116;28;20029;-87
2022/04/07 06:33:27;;;;;;;7.53;1.73;;;10.20;99.90;;;;;;5020831;28;20057;-90
2022/04/07 06:35:53;;;;;;;5.03;1.80;;;10.10;99.90;;;;;;5036652;28;20053;-86
2022/04/07 06:38:19;;;;;;;4.25;1.73;;;10.10;99.90;;;;;;5036859;28;20025;-88
2022/04/07 06:40:45;;;;;;;4.40;1.75;;;10.10;99.90;;;;;;5037414;28;20021;-88
2022/04/07 06:43:11;;;;;;;7.28;2.10;;;10.10;99.90;;;;;;5037223;28;20052;-88
2022/04/07 06:45:37;;;;;;;5.85;1.85;;;10.10;99.90;;;;;;5020707;28;20131;-89
2022/04/07 06:48:03;;;;;;;7.55;2.42;;;10.00;99.90;;;;;;5039806;28;20500;-89
2022/04/07 06:50:31;;;;;;;4.60;2.10;;;10.00;99.90;;;;;;5043709;28;20112;-88
2022/04/07 06:52:57;;;;;;;5.50;2.08;;;10.00;99.90;;;;;;5032862;28;20071;-89
2022/04/07 06:55:23;;;;;;;5.85;2.30;;;10.00;99.90;;;;;;5038950;28;20013;-89
2022/04/07 06:57:52;;;;;;;4.60;1.80;;;10.00;99.90;;;;;;5037570;28;20123;-88
2022/04/07 07:00:20;;;;;;;7.50;2.20;;;10.00;99.90;;;;;;5021076;28;20491;-90
2022/04/07 07:02:47;;;;;;;5.82;2.47;;;10.00;99.90;;;;;;5037229;28;20032;-90
2022/04/07 07:05:13;;;;;;;5.70;2.35;;;9.90;99.90;;;;;;5038144;28;20036;-90
2022/04/07 07:07:39;;;;;;;5.93;2.63;;;10.00;99.90;;;;;;5036712;28;20381;-89
2022/04/07 07:10:05;;;;;;;12.05;3.45;;;10.00;99.90;;;;;;5036835;28;20032;-90
2022/04/07 07:12:30;;;;;;;4.70;1.33;;;10.00;99.90;;;;;;5036996;28;20046;-89
2022/04/07 07:14:56;;;;;;;4.10;1.00;;;10.00;99.90;;;;;;5036581;28;20021;-87
2022/04/07 07:17:22;;;;;;;2.88;0.50;;;9.90;99.90;;;;;;5036236;28;20189;-88
2022/04/07 07:19:47;;;;;;;2.50;0.70;;;9.80;99.90;;;;;;5036221;28;20047;-87
2022/04/07 07:22:13;;;;;;;4.40;0.70;;;9.60;99.90;;;;;;5036174;28;20029;-88
2022/04/07 07:24:39;;;;;;;3.53;0.70;;;9.40;99.90;;;;;;5020533;28;20025;-90
2022/04/07 07:27:04;;;;;;;7.40;0.82;;;9.30;99.90;;;;;;5021220;28;20084;-89
2022/04/07 07:29:30;;;;;;;2.95;0.90;;;9.10;99.90;;;;;;5036381;28;20025;-89
2022/04/07 07:31:56;;;;;;;3.00;0.80;;;9.00;99.90;;;;;;5020428;28;20029;-89
2022/04/07 07:34:21;;;;;;;6.18;0.85;;;8.90;99.90;;;;;;5054139;28;20374;-89
2022/04/07 07:36:47;;;;;;;1.40;0.73;;;8.80;99.90;;;;;;5019892;28;20029;-87
2022/04/07 07:39:15;;;;;;;5.05;0.95;;;8.70;99.90;;;;;;5036291;28;20031;-89
2022/04/07 07:41:41;;;;;;;5.93;1.42;;;8.70;99.90;;;;;;5036007;28;20048;-87
2022/04/07 07:44:07;;;;;;;5.25;1.10;;;8.60;99.90;;;;;;5035972;28;20041;-88
2022/04/07 07:46:34;;;;;;;3.08;0.95;;;8.60;99.90;;;;;;5035797;28;20025;-89
2022/04/07 07:49:01;;;;;;;6.05;1.25;;;8.50;99.90;;;;;;5036120;28;20027;-87
2022/04/07 07:51:27;;;;;;;6.30;0.90;;;8.50;99.90;;;;;;5035739;28;20048;-88
2022/04/07 07:53:52;;;;;;;4.60;1.33;;;8.50;99.90;;;;;;5035949;28;20033;-88
2022/04/07 07:56:18;;;;;;;7.07;1.83;;;8.50;99.90;;;;;;5019525;28;20116;-88
2022/04/07 07:58:43;;;;;;;6.00;1.38;;;8.50;99.90;;;;;;5036175;28;20029;-90
2022/04/07 08:01:09;;;;;;;8.45;1.63;;;8.50;99.90;;;;;;5036471;28;20021;-90
2022/04/07 08:03:35;;;;;;;5.93;1.38;;;8.40;99.90;;;;;;5054128;28;20075;-91
2022/04/07 08:06:02;;;;;;;8.48;1.67;;;8.40;99.90;;;;;;5035435;28;20021;-87
2022/04/07 08:08:28;;;;;;;5.20;1.25;;;8.40;99.90;;;;;;5035289;28;20026;-87
2022/04/07 08:10:53;;;;;;;3.88;1.20;;;8.40;99.90;;;;;;5035641;28;20028;-87
2022/04/07 08:13:19;;;;;;;9.50;1.85;;;8.40;99.90;;;;;;5053058;28;20029;-87
2022/04/07 08:15:47;;;;;;;10.38;2.45;;;8.30;99.90;;;;;;5019324;28;20037;-88
2022/04/07 08:18:15;;;;;;;8.23;1.73;;;8.30;99.90;;;;;;5035597;28;20021;-87
2022/04/07 08:20:41;;;;;;;5.30;1.42;;;8.30;99.90;;;;;;5035789;28;20030;-87
2022/04/07 08:23:07;;;;;;;8.65;2.15;;;8.30;99.90;;;;;;5034060;28;20044;-86
2022/04/07 08:25:33;;;;;;;6.70;1.85;;;8.20;99.90;;;;;;5034650;28;20462;-86
2022/04/07 08:27:58;;;;;;;12.25;4.50;;;8.20;99.90;;;;;;5019149;28;20468;-87
2022/04/07 08:30:24;;;;;;;10.40;3.63;;;8.20;99.90;;;;;;5033784;28;20020;-86
2022/04/07 08:32:50;;;;;;;8.32;2.00;;;8.10;99.90;;;;;;5034519;28;20045;-87
2022/04/07 08:35:15;;;;;;;9.40;3.10;;;8.10;99.90;;;;;;5037636;28;20497;-86
2022/04/07 08:37:41;;;;;;;6.07;1.88;;;8.10;99.90;;;;;;5056648;28;20381;-87
2022/04/07 08:40:07;;;;;;;10.32;3.75;;;8.10;99.90;;;;;;5023019;28;20064;-88
2022/04/07 08:42:37;;;;;;;11.07;3.45;;;8.10;99.90;;;;;;5022630;28;20070;-88
2022/04/07 08:45:03;;;;;;;9.88;2.90;;;8.10;99.90;;;;;;5038626;28;20044;-88
2022/04/07 08:47:30;;;;;;;8.50;2.97;;;8.10;99.90;;;;;;5022873;28;20033;-89
2022/04/07 08:49:56;;;;;;;7.88;2.00;;;8.10;99.90;;;;;;5039276;28;20017;-86
2022/04/07 08:52:22;;;;;;;9.10;3.00;;;8.10;99.90;;;;;;5039271;28;20029;-88
2022/04/07 08:54:48;;;;;;;10.90;2.60;;;8.10;99.90;;;;;;5022430;28;20025;-88
2022/04/07 08:57:14;;;;;;;7.70;2.25;;;8.10;99.90;;;;;;5039042;28;20031;-88
2022/04/07 08:59:41;;;;;;;8.48;2.75;;;8.10;99.90;;;;;;5038882;28;20108;-87
2022/04/07 09:02:09;;;;;;;7.07;1.90;;;8.20;99.90;;;;;;5038353;28;20029;-88
2022/04/07 09:04:39;;;;;;;7.40;2.00;;;8.30;99.90;;;;;;5038413;28;20465;-88
2022/04/07 09:07:06;;;;;;;6.50;2.10;;;8.30;99.90;;;;;;5056978;28;20483;-88
2022/04/07 09:09:36;;;;;;;5.85;1.90;;;8.40;99.90;;;;;;5038730;28;20025;-89
2022/04/07 09:12:02;;;;;;;5.15;1.88;;;8.50;99.90;;;;;;5022927;28;20032;-88
2022/04/07 09:14:35;;;;;;;6.82;1.80;;;8.60;99.90;;;;;;5057778;28;20033;-87
2022/04/07 09:17:01;;;;;;;7.53;1.80;;;8.60;99.90;;;;;;5024139;28;20025;-86
2022/04/07 09:19:29;;;;;;;7.68;1.80;;;8.70;99.90;;;;;;5041346;28;20032;-87
2022/04/07 09:22:10;;;;;;;8.57;1.77;;;8.80;99.90;;;;;;5038597;28;20035;-88
2022/04/07 09:24:38;;;;;;;7.10;1.80;;;8.80;99.90;;;;;;5022079;28;20029;-92
2022/04/07 09:27:06;;;;;;;4.15;1.50;;;8.90;99.90;;;;;;5037582;28;20024;-86
2022/04/07 09:29:45;;;;;;;6.75;1.60;;;9.00;99.90;;;;;;5021814;28;20025;-86
2022/04/07 09:32:25;;;;;;;10.65;2.90;;;9.00;99.90;;;;;;5037634;28;20037;-86
2022/04/07 09:34:52;;;;;;;8.45;1.90;;;9.10;99.90;;;;;;5037517;28;20049;-86
2022/04/07 09:37:20;;;;;;;8.52;2.08;;;9.20;99.90;;;;;;5055442;28;20031;-86
2022/04/07 09:39:46;;;;;;;7.97;2.10;;;9.20;99.90;;;;;;5037615;28;20032;-86
2022/04/07 09:42:35;;;;;;;10.77;2.28;;;9.20;99.90;;;;;;5037627;28;20033;-86
2022/04/07 09:45:02;;;;;;;12.10;1.98;;;9.20;99.90;;;;;;5037662;28;20380;-87
2022/04/07 09:47:39;;;;;;;11.15;3.13;;;9.20;99.90;;;;;;5055551;28;20013;-86
2022/04/07 09:50:18;;;;;;;8.43;2.00;;;9.30;99.90;;;;;;5038004;28;20063;-86
2022/04/07 09:53:03;;;;;;;8.40;1.60;;;9.30;99.90;;;;;;5038922;28;20032;-86
2022/04/07 09:55:35;;;;;;;4.70;1.40;;;9.40;99.90;;;;;;5037466;28;20032;-87
2022/04/07 09:58:03;;;;;;;9.45;1.40;;;9.40;99.90;;;;;;5037531;28;20120;-86
2022/04/07 10:00:29;;;;;;;10.95;1.50;;;9.50;99.90;;;;;;5037189;28;20021;-90
2022/04/07 10:02:56;;;;;;;8.68;1.60;;;9.60;99.90;;;;;;5036245;28;20029;-86
2022/04/07 10:05:23;;;;;;;6.05;1.73;;;9.70;99.90;;;;;;5037126;28;20037;-86
2022/04/07 10:07:50;;;;;;;6.20;1.52;;;9.70;99.90;;;;;;5055104;28;20021;-87
2022/04/07 10:10:19;;;;;;;9.85;1.65;;;9.80;99.90;;;;;;5054787;28;20032;-86
2022/04/07 10:12:46;;;;;;;4.68;1.20;;;9.80;99.90;;;;;;5020703;28;20166;-86
2022/04/07 10:15:12;;;;;;;7.43;1.35;;;9.80;99.90;;;;;;5020442;28;20095;-86
2022/04/07 10:17:38;;;;;;;4.28;1.25;;;9.90;99.90;;;;;;5020231;28;20029;-85
2022/04/07 10:20:16;;;;;;;10.48;1.35;;;10.00;99.90;;;;;;5036907;28;20029;-87
2022/04/07 10:23:00;;;;;;;7.03;1.50;;;10.00;99.90;;;;;;5036306;28;20028;-87
2022/04/07 10:25:27;;;;;;;9.48;1.08;;;10.10;99.90;;;;;;5036599;28;20362;-85
2022/04/07 10:27:57;;;;;;;6.45;1.45;;;10.20;99.90;;;;;;5020026;28;20024;-85
2022/04/07 10:30:23;;;;;;;6.53;1.50;;;10.30;99.90;;;;;;5036430;28;20048;-87
2022/04/07 10:32:52;;;;;;;7.53;1.50;;;10.40;99.90;;;;;;5053821;28;20100;-85
2022/04/07 10:35:31;;;;;;;7.30;1.55;;;10.50;99.90;;;;;;5035542;28;20132;-85
2022/04/07 10:37:58;;;;;;;4.68;1.10;;;10.50;99.90;;;;;;5054256;28;20032;-85
2022/04/07 10:40:50;;;;;;;8.30;1.90;;;10.50;99.90;;;;;;5036427;28;20480;-86
2022/04/07 10:43:18;;;;;;;8.43;1.92;;;10.50;99.90;;;;;;5036432;28;20031;-86
2022/04/07 10:46:05;;;;;;;6.85;1.70;;;10.50;99.90;;;;;;5036293;28;20466;-85
2022/04/07 10:48:58;;;;;;;9.65;1.48;;;10.50;99.90;;;;;;5036264;28;20540;-86
2022/04/07 10:51:45;;;;;;;7.72;1.90;;;10.50;99.90;;;;;;5039937;28;20068;-87
2022/04/07 10:54:11;;;;;;;9.13;2.17;;;10.50;99.90;;;;;;5036177;28;20056;-86
2022/04/07 10:56:41;;;;;;;8.82;1.65;;;10.50;99.90;;;;;;5035738;28;20029;-86
2022/04/07 10:59:16;;;;;;;11.70;2.08;;;10.50;99.90;;;;;;5019980;28;20031;-86
2022/04/07 11:01:42;;;;;;;6.95;1.45;;;10.50;99.90;;;;;;5053540;28;20058;-86
2022/04/07 11:04:23;;;;;;;9.52;1.95;;;10.60;99.90;;;;;;5054278;28;20083;-86
2022/04/07 11:07:16;;;;;;;11.45;1.90;;;10.60;99.90;;;;;;5035956;28;20017;-86
2022/04/07 11:09:57;;;;;;;10.05;2.00;;;10.60;99.90;;;;;;5053758;28;20069;-86
2022/04/07 11:12:40;;;;;;;10.82;2.00;;;10.60;99.90;;;;;;5021435;28;20381;-86
2022/04/07 11:15:05;;;;;;;7.28;2.17;;;10.60;99.90;;;;;;5053769;28;20020;-86
2022/04/07 11:17:46;;;;;;;14.20;2.25;;;10.60;99.90;;;;;;5037302;28;20377;-93
2022/04/07 11:20:15;;;;;;;8.68;1.58;;;10.60;99.90;;;;;;5053807;28;20103;-86
2022/04/07 11:23:08;;;;;;;12.55;2.10;;;10.60;99.90;;;;;;5039305;28;20043;-88
2022/04/07 11:25:34;;;;;;;13.70;2.40;;;10.60;99.90;;;;;;5035755;28;20036;-86
2022/04/07 11:28:19;;;;;;;11.23;2.33;;;10.60;99.90;;;;;;5035320;28;20033;-86
2022/04/07 11:30:56;;;;;;;15.27;2.25;;;10.60;99.90;;;;;;5035694;28;20082;-85
2022/04/07 11:33:28;;;;;;;10.77;1.80;;;10.60;99.90;;;;;;5035590;28;20036;-86
2022/04/07 11:36:00;;;;;;;10.25;1.65;;;10.50;99.90;;;;;;5031934;28;20449;-87
2022/04/07 11:38:31;;;;;;;10.35;1.90;;;10.50;99.90;;;;;;5033806;28;20037;-86
2022/04/07 11:41:03;;;;;;;;;;;10.50;99.90;;;;;;5033914;28;20558;-86
2022/04/07 11:43:34;;;;;;;7.93;1.80;;;10.60;99.90;;;;;;5033492;28;19921;-86
2022/04/07 11:46:00;;;;;;;12.63;1.80;;;10.50;99.90;;;;;;5037793;28;20025;-86
2022/04/07 11:48:36;;;;;;;9.02;1.83;;;10.60;99.90;;;;;;5038433;28;20045;-87
2022/04/07 11:51:14;;;;;;;12.85;2.60;;;10.50;99.90;;;;;;5032612;28;20029;-87
2022/04/07 11:53:40;;;;;;;10.95;2.58;;;10.60;99.90;;;;;;5033518;28;20022;-88
2022/04/07 11:56:17;;;;;;;8.38;1.90;;;10.60;99.90;;;;;;5015469;28;20033;-86
2022/04/07 11:58:56;;;;;;;15.15;2.60;;;10.60;99.90;;;;;;5015375;28;20026;-86
2022/04/07 12:01:23;;;;;;;10.65;2.05;;;10.70;99.90;;;;;;5032122;28;20017;-87
2022/04/07 12:04:09;;;;;;;13.07;2.67;;;10.70;99.90;;;;;;5032252;28;20113;-89
2022/04/07 12:06:37;;;;;;;9.73;2.63;;;10.80;99.90;;;;;;5032512;28;20069;-87
2022/04/07 12:09:04;;;;;;;10.23;2.65;;;10.80;99.90;;;;;;5034248;28;20030;-87
2022/04/07 12:11:32;;;;;;;12.80;3.05;;;10.80;99.90;;;;;;5037895;28;20059;-90
2022/04/07 12:14:00;;;;;;;10.82;2.42;;;10.80;99.90;;;;;;5037911;28;20048;-88
2022/04/07 12:16:26;;;;;;;12.60;2.30;;;10.80;99.90;;;;;;5036276;28;20028;-89
2022/04/07 12:18:57;;;;;;;14.70;3.67;;;10.90;99.90;;;;;;5020173;28;20033;-88
2022/04/07 12:21:25;;;;;;;14.57;2.50;;;10.90;99.90;;;;;;5036298;28;20030;-89
2022/04/07 12:24:13;;;;;;;12.50;3.33;;;10.90;99.90;;;;;;5020256;28;20034;-89
2022/04/07 12:26:49;;;;;;;12.77;2.67;;;10.90;99.90;;;;;;5036375;28;20022;-89
2022/04/07 12:29:24;;;;;;;10.68;1.65;;;10.90;99.90;;;;;;5036694;28;20037;-87
2022/04/07 12:32:03;;;;;;;16.65;3.22;;;11.00;99.90;;;;;;5036197;28;20032;-88
2022/04/07 12:34:31;;;;;;;12.70;2.10;;;10.90;99.90;;;;;;5038241;28;20018;-89
2022/04/07 12:36:57;;;;;;;18.27;3.28;;;10.90;99.90;;;;;;5039480;28;20044;-90
2022/04/07 12:39:34;;;;;;;9.77;2.10;;;10.90;99.90;;;;;;5057444;28;20033;-87
2022/04/07 12:42:05;;;;;;;9.40;2.00;;;10.90;99.90;;;;;;5039617;28;20489;-90
2022/04/07 12:44:35;;;;;;;15.77;2.78;;;10.90;99.90;;;;;;5040277;28;20021;-88
2022/04/07 12:47:13;;;;;;;13.60;2.03;;;10.90;99.90;;;;;;5039227;28;20466;-88
2022/04/07 12:49:40;;;;;;;8.75;2.10;;;11.00;99.90;;;;;;5039253;28;20079;-89
2022/04/07 12:52:11;;;;;;;11.52;2.10;;;11.00;99.90;;;;;;5038644;28;20147;-88